RYR4SV GCFV-LEMD
Flight info
| Callsign | RYR4SV |
|---|---|
| Flight time | 2h 3m |
| Altitude | 34000 |
| Route | VASTO UN858 AKUDA DCT PESAS N858 PARKA Z165 SOTUK |
| Aircraft | B738/M-SDE2E3FGHIRWXY/LB1 |
Departure
| Time | 2026-05-05 15:51 |
|---|---|
| Airport | Fuerteventura Airport (GCFV) |
Arrival
| Time | 2026-05-05 17:55 |
|---|---|
| Airport | Adolfo Suárez Madrid–Barajas Airport (LEMD) |
| Time | Latitude | Longitude | Altitude | Speed | Heading |
|---|---|---|---|---|---|
| 2026-05-05 15:26 | 28.44998 | -13.86842 | 100 ft | 0 kts | 271° |
| 2026-05-05 15:39 | 28.44998 | -13.86827 | 98 ft | 4 kts | 271° |
| 2026-05-05 15:39 | 28.44997 | -13.86796 | 98 ft | 4 kts | 271° |
| 2026-05-05 15:39 | 28.44996 | -13.86771 | 98 ft | 4 kts | 263° |
| 2026-05-05 15:39 | 28.45005 | -13.86748 | 98 ft | 4 kts | 198° |
| 2026-05-05 15:40 | 28.45030 | -13.86746 | 97 ft | 3 kts | 181° |
| 2026-05-05 15:40 | 28.45033 | -13.86746 | 97 ft | 0 kts | 181° |
| 2026-05-05 15:42 | 28.45011 | -13.86746 | 98 ft | 7 kts | 181° |
| 2026-05-05 15:42 | 28.44936 | -13.86749 | 98 ft | 13 kts | 181° |
| 2026-05-05 15:42 | 28.44859 | -13.86708 | 96 ft | 14 kts | 101° |
| 2026-05-05 15:42 | 28.44839 | -13.86597 | 91 ft | 17 kts | 140° |
| 2026-05-05 15:43 | 28.44697 | -13.86587 | 75 ft | 24 kts | 181° |
| 2026-05-05 15:43 | 28.44519 | -13.86594 | 69 ft | 28 kts | 182° |
| 2026-05-05 15:43 | 28.44319 | -13.86600 | 61 ft | 29 kts | 180° |
| 2026-05-05 15:43 | 28.44108 | -13.86606 | 55 ft | 32 kts | 181° |
| 2026-05-05 15:44 | 28.43884 | -13.86613 | 46 ft | 28 kts | 182° |
| 2026-05-05 15:44 | 28.43690 | -13.86621 | 41 ft | 26 kts | 182° |
| 2026-05-05 15:44 | 28.43516 | -13.86627 | 37 ft | 24 kts | 181° |
| 2026-05-05 15:44 | 28.43355 | -13.86628 | 33 ft | 22 kts | 168° |
| 2026-05-05 15:45 | 28.43307 | -13.86553 | 32 ft | 0 kts | 91° |
| 2026-05-05 15:50 | 28.43307 | -13.86552 | 32 ft | 1 kts | 91° |
| 2026-05-05 15:50 | 28.43308 | -13.86488 | 31 ft | 13 kts | 78° |
| 2026-05-05 15:50 | 28.43380 | -13.86438 | 33 ft | 13 kts | 6° |
| 2026-05-05 15:51 | 28.43521 | -13.86434 | 32 ft | 43 kts | 1° |
| 2026-05-05 15:51 | 28.44059 | -13.86414 | 36 ft | 110 kts | 2° |
| 2026-05-05 15:51 | 28.45013 | -13.86373 | 85 ft | 162 kts | 6° |
| 2026-05-05 15:51 | 28.46148 | -13.86226 | 736 ft | 163 kts | 17° |
| 2026-05-05 15:52 | 28.47179 | -13.85762 | 1630 ft | 159 kts | 23° |
| 2026-05-05 15:52 | 28.48319 | -13.85611 | 2148 ft | 180 kts | 358° |
| 2026-05-05 15:52 | 28.49683 | -13.85694 | 2380 ft | 209 kts | 359° |
| 2026-05-05 15:52 | 28.51220 | -13.85776 | 2672 ft | 230 kts | 359° |
| 2026-05-05 15:53 | 28.52868 | -13.85851 | 3107 ft | 246 kts | 4° |
| 2026-05-05 15:53 | 28.54529 | -13.85329 | 3780 ft | 254 kts | 27° |
| 2026-05-05 15:53 | 28.56027 | -13.84212 | 4497 ft | 263 kts | 34° |
| 2026-05-05 15:53 | 28.57517 | -13.82957 | 5238 ft | 269 kts | 35° |
| 2026-05-05 15:54 | 28.59042 | -13.81662 | 5910 ft | 278 kts | 34° |
| 2026-05-05 15:54 | 28.60614 | -13.80331 | 6593 ft | 284 kts | 34° |
| 2026-05-05 15:54 | 28.62223 | -13.78974 | 7226 ft | 292 kts | 34° |
| 2026-05-05 15:54 | 28.63872 | -13.77594 | 7928 ft | 296 kts | 34° |
| 2026-05-05 15:55 | 28.65547 | -13.76194 | 8594 ft | 303 kts | 34° |
| 2026-05-05 15:55 | 28.67266 | -13.74761 | 9252 ft | 310 kts | 34° |
| 2026-05-05 15:55 | 28.69029 | -13.73307 | 9910 ft | 316 kts | 31° |
| 2026-05-05 15:55 | 28.70973 | -13.72094 | 10383 ft | 326 kts | 21° |
| 2026-05-05 15:56 | 28.73097 | -13.71034 | 10544 ft | 348 kts | 19° |
| 2026-05-05 15:56 | 28.75427 | -13.69927 | 10731 ft | 369 kts | 19° |
| 2026-05-05 15:56 | 28.77796 | -13.68783 | 11159 ft | 379 kts | 19° |
| 2026-05-05 15:56 | 28.80233 | -13.67575 | 11756 ft | 384 kts | 19° |
| 2026-05-05 15:57 | 28.82689 | -13.66336 | 12027 ft | 387 kts | 20° |
| 2026-05-05 15:57 | 28.85147 | -13.65082 | 12018 ft | 385 kts | 20° |
| 2026-05-05 15:57 | 28.87581 | -13.63835 | 12021 ft | 382 kts | 20° |
| 2026-05-05 15:57 | 28.90001 | -13.62597 | 12019 ft | 380 kts | 20° |
| 2026-05-05 15:58 | 28.92410 | -13.61374 | 12011 ft | 378 kts | 18° |
| 2026-05-05 15:58 | 28.94941 | -13.60682 | 12192 ft | 374 kts | 1° |
| 2026-05-05 15:58 | 28.97545 | -13.60353 | 12847 ft | 376 kts | 359° |
| 2026-05-05 15:58 | 29.00156 | -13.60210 | 13576 ft | 376 kts | 355° |
| 2026-05-05 15:59 | 29.02782 | -13.60175 | 14180 ft | 379 kts | 353° |
| 2026-05-05 15:59 | 29.05434 | -13.60171 | 14746 ft | 383 kts | 353° |
| 2026-05-05 15:59 | 29.08118 | -13.60165 | 15322 ft | 387 kts | 353° |
| 2026-05-05 15:59 | 29.10826 | -13.60147 | 15880 ft | 391 kts | 353° |
| 2026-05-05 16:00 | 29.13554 | -13.60115 | 16478 ft | 394 kts | 353° |
| 2026-05-05 16:00 | 29.16308 | -13.60073 | 17082 ft | 397 kts | 354° |
| 2026-05-05 16:00 | 29.18149 | -13.60040 | 17462 ft | 400 kts | 354° |
| 2026-05-05 16:00 | 29.20944 | -13.59988 | 18006 ft | 404 kts | 353° |
| 2026-05-05 16:01 | 29.23770 | -13.59932 | 18519 ft | 408 kts | 353° |
| 2026-05-05 16:01 | 29.26620 | -13.59874 | 19008 ft | 411 kts | 353° |
| 2026-05-05 16:01 | 29.29494 | -13.59815 | 19493 ft | 415 kts | 353° |
| 2026-05-05 16:01 | 29.32392 | -13.59756 | 19981 ft | 418 kts | 353° |
| 2026-05-05 16:02 | 29.35313 | -13.59696 | 20440 ft | 422 kts | 353° |
| 2026-05-05 16:02 | 29.38258 | -13.59635 | 20905 ft | 425 kts | 353° |
| 2026-05-05 16:02 | 29.41226 | -13.59575 | 21378 ft | 428 kts | 353° |
| 2026-05-05 16:02 | 29.44216 | -13.59513 | 21834 ft | 431 kts | 352° |
| 2026-05-05 16:03 | 29.47228 | -13.59452 | 22278 ft | 435 kts | 351° |
| 2026-05-05 16:03 | 29.50265 | -13.59391 | 22690 ft | 438 kts | 351° |
| 2026-05-05 16:03 | 29.53327 | -13.59329 | 23105 ft | 442 kts | 351° |
| 2026-05-05 16:03 | 29.56413 | -13.59266 | 23519 ft | 445 kts | 351° |
| 2026-05-05 16:04 | 29.59525 | -13.59202 | 23878 ft | 448 kts | 351° |
| 2026-05-05 16:04 | 29.62652 | -13.59137 | 24235 ft | 451 kts | 351° |
| 2026-05-05 16:04 | 29.65791 | -13.59072 | 24604 ft | 453 kts | 351° |
| 2026-05-05 16:04 | 29.68948 | -13.59006 | 24963 ft | 455 kts | 351° |
| 2026-05-05 16:05 | 29.72121 | -13.58940 | 25329 ft | 458 kts | 351° |
| 2026-05-05 16:05 | 29.75315 | -13.58875 | 25649 ft | 460 kts | 351° |
| 2026-05-05 16:05 | 29.78535 | -13.58809 | 25977 ft | 463 kts | 351° |
| 2026-05-05 16:05 | 29.81764 | -13.58742 | 26310 ft | 465 kts | 351° |
| 2026-05-05 16:06 | 29.85010 | -13.58675 | 26628 ft | 468 kts | 351° |
| 2026-05-05 16:06 | 29.88266 | -13.58608 | 26940 ft | 470 kts | 351° |
| 2026-05-05 16:06 | 29.91545 | -13.58540 | 27258 ft | 473 kts | 351° |
| 2026-05-05 16:06 | 29.94841 | -13.58472 | 27559 ft | 475 kts | 351° |
| 2026-05-05 16:07 | 29.98153 | -13.58403 | 27857 ft | 477 kts | 351° |
| 2026-05-05 16:07 | 30.01481 | -13.58334 | 28149 ft | 479 kts | 351° |
| 2026-05-05 16:07 | 30.04824 | -13.58265 | 28434 ft | 482 kts | 351° |
| 2026-05-05 16:07 | 30.08180 | -13.58195 | 28758 ft | 483 kts | 351° |
| 2026-05-05 16:08 | 30.11549 | -13.58124 | 29039 ft | 485 kts | 351° |
| 2026-05-05 16:08 | 30.14935 | -13.58054 | 29294 ft | 488 kts | 351° |
| 2026-05-05 16:08 | 30.18336 | -13.57984 | 29573 ft | 490 kts | 351° |
| 2026-05-05 16:08 | 30.21748 | -13.57912 | 29851 ft | 491 kts | 351° |
| 2026-05-05 16:09 | 30.25173 | -13.57841 | 30147 ft | 493 kts | 351° |
| 2026-05-05 16:09 | 30.28602 | -13.57768 | 30470 ft | 492 kts | 351° |
| 2026-05-05 16:09 | 30.32014 | -13.57693 | 30864 ft | 489 kts | 350° |
| 2026-05-05 16:09 | 30.35408 | -13.57620 | 31228 ft | 487 kts | 350° |
| 2026-05-05 16:10 | 30.38749 | -13.57551 | 31510 ft | 487 kts | 350° |
| 2026-05-05 16:10 | 30.42137 | -13.57483 | 31775 ft | 487 kts | 350° |
| 2026-05-05 16:10 | 30.45522 | -13.57408 | 32072 ft | 487 kts | 351° |
| 2026-05-05 16:10 | 30.48937 | -13.56955 | 32370 ft | 503 kts | 2° |
| 2026-05-05 16:11 | 30.52337 | -13.55763 | 32667 ft | 516 kts | 13° |
| 2026-05-05 16:11 | 30.61534 | -13.49037 | 33867 ft | 523 kts | 29° |
| 2026-05-05 16:12 | 30.64503 | -13.46575 | 33983 ft | 526 kts | 28° |
| 2026-05-05 16:13 | 30.79767 | -13.34288 | 34079 ft | 543 kts | 28° |
| 2026-05-05 16:13 | 30.86020 | -13.29303 | 34098 ft | 545 kts | 28° |
| 2026-05-05 16:14 | 30.98467 | -13.19394 | 34068 ft | 539 kts | 28° |
| 2026-05-05 16:15 | 31.10814 | -13.09532 | 34068 ft | 536 kts | 28° |
| 2026-05-05 16:16 | 31.23053 | -12.99663 | 34069 ft | 531 kts | 28° |
| 2026-05-05 16:17 | 31.32200 | -12.92436 | 34072 ft | 528 kts | 28° |
| 2026-05-05 16:18 | 31.41267 | -12.85175 | 34076 ft | 526 kts | 28° |
| 2026-05-05 16:19 | 31.50259 | -12.77885 | 34089 ft | 521 kts | 29° |
| 2026-05-05 16:19 | 31.59223 | -12.70711 | 34077 ft | 519 kts | 29° |
| 2026-05-05 16:20 | 31.71107 | -12.61106 | 34076 ft | 518 kts | 29° |
| 2026-05-05 16:22 | 31.85847 | -12.49145 | 34068 ft | 514 kts | 30° |
| 2026-05-05 16:23 | 31.97596 | -12.39580 | 34077 ft | 513 kts | 30° |
| 2026-05-05 16:23 | 32.06345 | -12.32383 | 34079 ft | 512 kts | 31° |
| 2026-05-05 16:24 | 32.12201 | -12.27634 | 34081 ft | 509 kts | 30° |
| 2026-05-05 16:25 | 32.20946 | -12.20549 | 34084 ft | 507 kts | 31° |
| 2026-05-05 16:25 | 32.29636 | -12.13439 | 34088 ft | 506 kts | 31° |
| 2026-05-05 16:26 | 32.35331 | -12.08760 | 34071 ft | 486 kts | 32° |
| 2026-05-05 16:26 | 32.40828 | -12.04240 | 34081 ft | 480 kts | 32° |
| 2026-05-05 16:27 | 32.46355 | -11.99691 | 34092 ft | 488 kts | 31° |
| 2026-05-05 16:27 | 32.51977 | -11.95068 | 34102 ft | 495 kts | 31° |
| 2026-05-05 16:28 | 32.57662 | -11.90378 | 34095 ft | 499 kts | 31° |
| 2026-05-05 16:28 | 32.63291 | -11.85715 | 34081 ft | 479 kts | 33° |
| 2026-05-05 16:29 | 32.65980 | -11.83487 | 34080 ft | 467 kts | 33° |
| 2026-05-05 16:29 | 32.68643 | -11.81283 | 34083 ft | 465 kts | 33° |
| 2026-05-05 16:29 | 32.73981 | -11.76860 | 34108 ft | 471 kts | 33° |
| 2026-05-05 16:30 | 32.79396 | -11.72364 | 34099 ft | 476 kts | 33° |
| 2026-05-05 16:30 | 32.84823 | -11.67848 | 34093 ft | 477 kts | 33° |
| 2026-05-05 16:31 | 32.90269 | -11.63311 | 34091 ft | 477 kts | 33° |
| 2026-05-05 16:31 | 32.95706 | -11.58774 | 34087 ft | 477 kts | 33° |
| 2026-05-05 16:32 | 33.01126 | -11.54245 | 34093 ft | 476 kts | 33° |
| 2026-05-05 16:32 | 33.06541 | -11.49713 | 34090 ft | 475 kts | 33° |
| 2026-05-05 16:33 | 33.11946 | -11.45182 | 34093 ft | 474 kts | 33° |
| 2026-05-05 16:33 | 33.17342 | -11.40652 | 34121 ft | 474 kts | 34° |
| 2026-05-05 16:34 | 33.22727 | -11.36104 | 34107 ft | 474 kts | 34° |
| 2026-05-05 16:34 | 33.28100 | -11.31548 | 34099 ft | 473 kts | 34° |
| 2026-05-05 16:35 | 33.33466 | -11.26991 | 34095 ft | 473 kts | 33° |
| 2026-05-05 16:35 | 33.38826 | -11.22432 | 34096 ft | 473 kts | 33° |
| 2026-05-05 16:36 | 33.44182 | -11.17872 | 34099 ft | 472 kts | 33° |
| 2026-05-05 16:36 | 33.49525 | -11.13315 | 34096 ft | 472 kts | 33° |
| 2026-05-05 16:37 | 33.54869 | -11.08750 | 34095 ft | 471 kts | 33° |
| 2026-05-05 16:37 | 33.60206 | -11.04184 | 34095 ft | 471 kts | 33° |
| 2026-05-05 16:38 | 33.65538 | -10.99615 | 34100 ft | 471 kts | 33° |
| 2026-05-05 16:38 | 33.70866 | -10.95043 | 34101 ft | 470 kts | 33° |
| 2026-05-05 16:39 | 33.76193 | -10.90466 | 34108 ft | 471 kts | 33° |
| 2026-05-05 16:39 | 33.81525 | -10.85880 | 34100 ft | 471 kts | 34° |
| 2026-05-05 16:40 | 33.86859 | -10.81279 | 34098 ft | 472 kts | 34° |
| 2026-05-05 16:40 | 33.92196 | -10.76667 | 34097 ft | 472 kts | 34° |
| 2026-05-05 16:41 | 33.97538 | -10.72046 | 34104 ft | 473 kts | 34° |
| 2026-05-05 16:41 | 34.02885 | -10.67414 | 34106 ft | 473 kts | 34° |
| 2026-05-05 16:42 | 34.07334 | -10.63555 | 34107 ft | 474 kts | 34° |
| 2026-05-05 16:42 | 34.12685 | -10.58905 | 34105 ft | 474 kts | 34° |
| 2026-05-05 16:43 | 34.18038 | -10.54247 | 34096 ft | 475 kts | 34° |
| 2026-05-05 16:43 | 34.23394 | -10.49579 | 34109 ft | 475 kts | 34° |
| 2026-05-05 16:44 | 34.28756 | -10.44898 | 34114 ft | 476 kts | 34° |
| 2026-05-05 16:44 | 34.34125 | -10.40203 | 34100 ft | 477 kts | 34° |
| 2026-05-05 16:45 | 34.39500 | -10.35494 | 34099 ft | 477 kts | 34° |
| 2026-05-05 16:45 | 34.44879 | -10.30775 | 34104 ft | 477 kts | 34° |
| 2026-05-05 16:46 | 34.50259 | -10.26047 | 34100 ft | 478 kts | 34° |
| 2026-05-05 16:46 | 34.55638 | -10.21312 | 34103 ft | 478 kts | 34° |
| 2026-05-05 16:47 | 34.61014 | -10.16576 | 34095 ft | 478 kts | 34° |
| 2026-05-05 16:47 | 34.66369 | -10.11861 | 34101 ft | 479 kts | 34° |
| 2026-05-05 16:48 | 34.71772 | -10.07116 | 34102 ft | 479 kts | 34° |
| 2026-05-05 16:48 | 34.77178 | -10.02358 | 34101 ft | 480 kts | 34° |
| 2026-05-05 16:49 | 34.82585 | -9.97589 | 34098 ft | 480 kts | 34° |
| 2026-05-05 16:49 | 34.87993 | -9.92809 | 34100 ft | 481 kts | 34° |
| 2026-05-05 16:50 | 34.93399 | -9.88023 | 34100 ft | 481 kts | 34° |
| 2026-05-05 16:50 | 34.98816 | -9.83220 | 34102 ft | 481 kts | 34° |
| 2026-05-05 16:51 | 35.04236 | -9.78407 | 34093 ft | 482 kts | 34° |
| 2026-05-05 16:51 | 35.09657 | -9.73584 | 34101 ft | 482 kts | 34° |
| 2026-05-05 16:52 | 35.15083 | -9.68747 | 34107 ft | 483 kts | 34° |
| 2026-05-05 16:52 | 35.20518 | -9.63899 | 34097 ft | 484 kts | 34° |
| 2026-05-05 16:53 | 35.25961 | -9.59032 | 34097 ft | 485 kts | 34° |
| 2026-05-05 16:53 | 35.31406 | -9.54153 | 34095 ft | 485 kts | 34° |
| 2026-05-05 16:54 | 35.36851 | -9.49265 | 34092 ft | 485 kts | 34° |
| 2026-05-05 16:54 | 35.42298 | -9.44369 | 34093 ft | 486 kts | 34° |
| 2026-05-05 16:55 | 35.47753 | -9.39459 | 34097 ft | 487 kts | 34° |
| 2026-05-05 16:55 | 35.53212 | -9.34535 | 34091 ft | 487 kts | 34° |
| 2026-05-05 16:56 | 35.58674 | -9.29600 | 34091 ft | 487 kts | 34° |
| 2026-05-05 16:56 | 35.64132 | -9.24660 | 34090 ft | 488 kts | 34° |
| 2026-05-05 16:57 | 35.69589 | -9.19712 | 34090 ft | 488 kts | 34° |
| 2026-05-05 16:57 | 35.75047 | -9.14755 | 34086 ft | 487 kts | 34° |
| 2026-05-05 16:58 | 35.80501 | -9.09793 | 34087 ft | 487 kts | 34° |
| 2026-05-05 16:58 | 35.85957 | -9.04821 | 34077 ft | 488 kts | 35° |
| 2026-05-05 16:59 | 35.91416 | -8.99836 | 34097 ft | 488 kts | 34° |
| 2026-05-05 16:59 | 35.96827 | -8.94746 | 34076 ft | 491 kts | 40° |
| 2026-05-05 17:00 | 36.01436 | -8.88497 | 34083 ft | 493 kts | 48° |
| 2026-05-05 17:00 | 36.05893 | -8.82061 | 34082 ft | 493 kts | 48° |
| 2026-05-05 17:01 | 36.10374 | -8.75630 | 34074 ft | 494 kts | 48° |
| 2026-05-05 17:01 | 36.14855 | -8.69179 | 34066 ft | 494 kts | 48° |
| 2026-05-05 17:02 | 36.19325 | -8.62719 | 34082 ft | 494 kts | 48° |
| 2026-05-05 17:02 | 36.23798 | -8.56238 | 34073 ft | 495 kts | 47° |
| 2026-05-05 17:03 | 36.28276 | -8.49737 | 34070 ft | 496 kts | 47° |
| 2026-05-05 17:03 | 36.32754 | -8.43222 | 34060 ft | 496 kts | 47° |
| 2026-05-05 17:04 | 36.37202 | -8.36741 | 34059 ft | 497 kts | 47° |
| 2026-05-05 17:04 | 36.41702 | -8.30170 | 34046 ft | 497 kts | 48° |
| 2026-05-05 17:05 | 36.46154 | -8.23657 | 34055 ft | 497 kts | 48° |
| 2026-05-05 17:05 | 36.50636 | -8.17088 | 34050 ft | 499 kts | 47° |
| 2026-05-05 17:06 | 36.55124 | -8.10497 | 34049 ft | 500 kts | 47° |
| 2026-05-05 17:06 | 36.59616 | -8.03887 | 34032 ft | 500 kts | 47° |
| 2026-05-05 17:07 | 36.64104 | -7.97269 | 34026 ft | 501 kts | 47° |
| 2026-05-05 17:07 | 36.68601 | -7.90625 | 34007 ft | 501 kts | 47° |
| 2026-05-05 17:08 | 36.73084 | -7.83987 | 34017 ft | 501 kts | 48° |
| 2026-05-05 17:08 | 36.77571 | -7.77332 | 34015 ft | 501 kts | 47° |
| 2026-05-05 17:09 | 36.82056 | -7.70665 | 34017 ft | 501 kts | 47° |
| 2026-05-05 17:09 | 36.86538 | -7.63990 | 34003 ft | 501 kts | 47° |
| 2026-05-05 17:10 | 36.91016 | -7.57308 | 33994 ft | 502 kts | 48° |
| 2026-05-05 17:10 | 36.95492 | -7.50614 | 34009 ft | 502 kts | 48° |
| 2026-05-05 17:11 | 36.99938 | -7.43951 | 34012 ft | 502 kts | 48° |
| 2026-05-05 17:11 | 37.04415 | -7.37232 | 34000 ft | 503 kts | 47° |
| 2026-05-05 17:12 | 37.08912 | -7.30529 | 33996 ft | 502 kts | 47° |
| 2026-05-05 17:12 | 37.13409 | -7.23827 | 33988 ft | 502 kts | 47° |
| 2026-05-05 17:13 | 37.17898 | -7.17115 | 33992 ft | 502 kts | 47° |
| 2026-05-05 17:13 | 37.22394 | -7.10399 | 33987 ft | 503 kts | 47° |
| 2026-05-05 17:14 | 37.26892 | -7.03674 | 34010 ft | 503 kts | 47° |
| 2026-05-05 17:14 | 37.31386 | -6.96934 | 33986 ft | 503 kts | 47° |
| 2026-05-05 17:15 | 37.35874 | -6.90190 | 33981 ft | 503 kts | 47° |
| 2026-05-05 17:15 | 37.40349 | -6.83450 | 33977 ft | 502 kts | 47° |
| 2026-05-05 17:16 | 37.44826 | -6.76694 | 33974 ft | 503 kts | 47° |
| 2026-05-05 17:16 | 37.49299 | -6.69930 | 33978 ft | 503 kts | 47° |
| 2026-05-05 17:17 | 37.53769 | -6.63156 | 33993 ft | 503 kts | 47° |
| 2026-05-05 17:17 | 37.58241 | -6.56366 | 33971 ft | 504 kts | 47° |
| 2026-05-05 17:18 | 37.62710 | -6.49565 | 33974 ft | 504 kts | 47° |
| 2026-05-05 17:18 | 37.67179 | -6.42750 | 33974 ft | 504 kts | 47° |
| 2026-05-05 17:19 | 37.71652 | -6.35917 | 33973 ft | 505 kts | 47° |
| 2026-05-05 17:19 | 37.76119 | -6.29076 | 33979 ft | 505 kts | 47° |
| 2026-05-05 17:20 | 37.80594 | -6.22209 | 33986 ft | 507 kts | 47° |
| 2026-05-05 17:20 | 37.85078 | -6.15313 | 33980 ft | 508 kts | 47° |
| 2026-05-05 17:21 | 37.89566 | -6.08398 | 33978 ft | 509 kts | 47° |
| 2026-05-05 17:22 | 37.96717 | -5.98544 | 33974 ft | 502 kts | 32° |
| 2026-05-05 17:22 | 38.02535 | -5.93781 | 33968 ft | 497 kts | 26° |
| 2026-05-05 17:23 | 38.08428 | -5.89190 | 33974 ft | 498 kts | 26° |
| 2026-05-05 17:23 | 38.14318 | -5.84512 | 33971 ft | 499 kts | 26° |
| 2026-05-05 17:24 | 38.20174 | -5.79797 | 33969 ft | 499 kts | 27° |
| 2026-05-05 17:24 | 38.26027 | -5.75065 | 33968 ft | 498 kts | 27° |
| 2026-05-05 17:25 | 38.31835 | -5.70364 | 33967 ft | 498 kts | 26° |
| 2026-05-05 17:25 | 38.37683 | -5.65626 | 33966 ft | 498 kts | 26° |
| 2026-05-05 17:26 | 38.43530 | -5.60880 | 33971 ft | 498 kts | 26° |
| 2026-05-05 17:26 | 38.49378 | -5.56123 | 33960 ft | 499 kts | 27° |
| 2026-05-05 17:27 | 38.55225 | -5.51356 | 33971 ft | 499 kts | 26° |
| 2026-05-05 17:27 | 38.61078 | -5.46580 | 33965 ft | 499 kts | 26° |
| 2026-05-05 17:28 | 38.65989 | -5.42612 | 33965 ft | 499 kts | 26° |
| 2026-05-05 17:28 | 38.71831 | -5.37903 | 33960 ft | 499 kts | 26° |
| 2026-05-05 17:29 | 38.77698 | -5.33156 | 33998 ft | 499 kts | 26° |
| 2026-05-05 17:29 | 38.83572 | -5.28388 | 33969 ft | 500 kts | 26° |
| 2026-05-05 17:30 | 38.89452 | -5.23605 | 33554 ft | 502 kts | 26° |
| 2026-05-05 17:30 | 38.92397 | -5.21206 | 32936 ft | 499 kts | 26° |
| 2026-05-05 17:30 | 38.95325 | -5.18817 | 32268 ft | 498 kts | 26° |
| 2026-05-05 17:30 | 38.98163 | -5.16231 | 31567 ft | 505 kts | 34° |
| 2026-05-05 17:31 | 39.00703 | -5.13078 | 30948 ft | 510 kts | 44° |
| 2026-05-05 17:31 | 39.02856 | -5.09473 | 30508 ft | 510 kts | 53° |
| 2026-05-05 17:31 | 39.04713 | -5.05601 | 30016 ft | 507 kts | 55° |
| 2026-05-05 17:31 | 39.06514 | -5.01713 | 29427 ft | 502 kts | 56° |
| 2026-05-05 17:32 | 39.08291 | -4.97881 | 28920 ft | 497 kts | 55° |
| 2026-05-05 17:32 | 39.10068 | -4.94101 | 28411 ft | 491 kts | 55° |
| 2026-05-05 17:32 | 39.11842 | -4.90375 | 27897 ft | 486 kts | 54° |
| 2026-05-05 17:32 | 39.13610 | -4.86689 | 27403 ft | 481 kts | 54° |
| 2026-05-05 17:33 | 39.15364 | -4.83038 | 26916 ft | 477 kts | 54° |
| 2026-05-05 17:33 | 39.17100 | -4.79418 | 26430 ft | 473 kts | 54° |
| 2026-05-05 17:33 | 39.18819 | -4.75824 | 25944 ft | 469 kts | 54° |
| 2026-05-05 17:33 | 39.20714 | -4.72531 | 25446 ft | 459 kts | 42° |
| 2026-05-05 17:34 | 39.22926 | -4.69615 | 25000 ft | 452 kts | 39° |
| 2026-05-05 17:34 | 39.25181 | -4.66817 | 24511 ft | 448 kts | 38° |
| 2026-05-05 17:34 | 39.27429 | -4.64047 | 24043 ft | 446 kts | 38° |
| 2026-05-05 17:34 | 39.29654 | -4.61270 | 23545 ft | 444 kts | 38° |
| 2026-05-05 17:35 | 39.31851 | -4.58479 | 22994 ft | 442 kts | 39° |
| 2026-05-05 17:35 | 39.34014 | -4.55695 | 22502 ft | 438 kts | 39° |
| 2026-05-05 17:35 | 39.36164 | -4.52907 | 22006 ft | 435 kts | 39° |
| 2026-05-05 17:35 | 39.38288 | -4.50142 | 21514 ft | 432 kts | 39° |
| 2026-05-05 17:36 | 39.40392 | -4.47399 | 21056 ft | 427 kts | 39° |
| 2026-05-05 17:36 | 39.42476 | -4.44682 | 20592 ft | 423 kts | 39° |
| 2026-05-05 17:36 | 39.44541 | -4.41989 | 20118 ft | 420 kts | 39° |
| 2026-05-05 17:36 | 39.46588 | -4.39319 | 19666 ft | 416 kts | 39° |
| 2026-05-05 17:37 | 39.48614 | -4.36675 | 19205 ft | 413 kts | 39° |
| 2026-05-05 17:37 | 39.50631 | -4.34039 | 18785 ft | 409 kts | 39° |
| 2026-05-05 17:37 | 39.52629 | -4.31427 | 18307 ft | 407 kts | 40° |
| 2026-05-05 17:37 | 39.54605 | -4.28840 | 17791 ft | 403 kts | 40° |
| 2026-05-05 17:38 | 39.56565 | -4.26271 | 17302 ft | 399 kts | 40° |
| 2026-05-05 17:38 | 39.58505 | -4.23726 | 16830 ft | 395 kts | 40° |
| 2026-05-05 17:38 | 39.60425 | -4.21206 | 16374 ft | 391 kts | 41° |
| 2026-05-05 17:38 | 39.62325 | -4.18710 | 15924 ft | 387 kts | 41° |
| 2026-05-05 17:39 | 39.64207 | -4.16238 | 15489 ft | 383 kts | 41° |
| 2026-05-05 17:39 | 39.66068 | -4.13790 | 15138 ft | 377 kts | 41° |
| 2026-05-05 17:39 | 39.67879 | -4.11402 | 14993 ft | 366 kts | 41° |
| 2026-05-05 17:39 | 39.69642 | -4.09077 | 14738 ft | 359 kts | 41° |
| 2026-05-05 17:40 | 39.71382 | -4.06784 | 14419 ft | 354 kts | 42° |
| 2026-05-05 17:40 | 39.73100 | -4.04517 | 14110 ft | 350 kts | 42° |
| 2026-05-05 17:40 | 39.74799 | -4.02275 | 13815 ft | 346 kts | 43° |
| 2026-05-05 17:40 | 39.76478 | -4.00057 | 13469 ft | 342 kts | 43° |
| 2026-05-05 17:41 | 39.78137 | -3.97863 | 13136 ft | 338 kts | 43° |
| 2026-05-05 17:41 | 39.79774 | -3.95696 | 12837 ft | 333 kts | 43° |
| 2026-05-05 17:41 | 39.81382 | -3.93566 | 12582 ft | 327 kts | 43° |
| 2026-05-05 17:41 | 39.82967 | -3.91464 | 12293 ft | 323 kts | 43° |
| 2026-05-05 17:42 | 39.84533 | -3.89387 | 11996 ft | 320 kts | 43° |
| 2026-05-05 17:42 | 39.86062 | -3.87358 | 11722 ft | 315 kts | 43° |
| 2026-05-05 17:42 | 39.87590 | -3.85330 | 11446 ft | 312 kts | 43° |
| 2026-05-05 17:42 | 39.89120 | -3.83296 | 11171 ft | 309 kts | 43° |
| 2026-05-05 17:43 | 39.90615 | -3.81308 | 10885 ft | 306 kts | 43° |
| 2026-05-05 17:43 | 39.92076 | -3.79364 | 10615 ft | 303 kts | 43° |
| 2026-05-05 17:43 | 39.93542 | -3.77411 | 10351 ft | 300 kts | 43° |
| 2026-05-05 17:43 | 39.94993 | -3.75476 | 10092 ft | 297 kts | 43° |
| 2026-05-05 17:44 | 39.96433 | -3.73557 | 9824 ft | 295 kts | 43° |
| 2026-05-05 17:44 | 39.97860 | -3.71652 | 9543 ft | 292 kts | 43° |
| 2026-05-05 17:44 | 39.99274 | -3.69762 | 9261 ft | 290 kts | 43° |
| 2026-05-05 17:44 | 40.00675 | -3.67891 | 9000 ft | 287 kts | 43° |
| 2026-05-05 17:45 | 40.02062 | -3.66037 | 8734 ft | 284 kts | 43° |
| 2026-05-05 17:45 | 40.03436 | -3.64198 | 8474 ft | 282 kts | 43° |
| 2026-05-05 17:45 | 40.04796 | -3.62378 | 8217 ft | 279 kts | 43° |
| 2026-05-05 17:45 | 40.06142 | -3.60574 | 7988 ft | 276 kts | 43° |
| 2026-05-05 17:46 | 40.07477 | -3.58785 | 7731 ft | 274 kts | 43° |
| 2026-05-05 17:46 | 40.08798 | -3.57013 | 7496 ft | 271 kts | 43° |
| 2026-05-05 17:46 | 40.10103 | -3.55262 | 7267 ft | 268 kts | 43° |
| 2026-05-05 17:46 | 40.11398 | -3.53522 | 7020 ft | 266 kts | 43° |
| 2026-05-05 17:47 | 40.12682 | -3.51798 | 6795 ft | 264 kts | 43° |
| 2026-05-05 17:47 | 40.13957 | -3.50085 | 6564 ft | 262 kts | 43° |
| 2026-05-05 17:47 | 40.15224 | -3.48380 | 6323 ft | 261 kts | 42° |
| 2026-05-05 17:47 | 40.16485 | -3.46684 | 6083 ft | 259 kts | 43° |
| 2026-05-05 17:48 | 40.17774 | -3.45030 | 5750 ft | 261 kts | 39° |
| 2026-05-05 17:48 | 40.19129 | -3.43440 | 5423 ft | 263 kts | 38° |
| 2026-05-05 17:48 | 40.20484 | -3.41861 | 5262 ft | 254 kts | 38° |
| 2026-05-05 17:48 | 40.21862 | -3.40573 | 5235 ft | 234 kts | 24° |
| 2026-05-05 17:49 | 40.23249 | -3.39610 | 5193 ft | 218 kts | 24° |
| 2026-05-05 17:49 | 40.24527 | -3.38705 | 5150 ft | 200 kts | 21° |
| 2026-05-05 17:49 | 40.25832 | -3.38359 | 5157 ft | 187 kts | 350° |
| 2026-05-05 17:49 | 40.27111 | -3.38572 | 5177 ft | 186 kts | 348° |
| 2026-05-05 17:50 | 40.28394 | -3.38794 | 5169 ft | 184 kts | 348° |
| 2026-05-05 17:50 | 40.29653 | -3.39012 | 5153 ft | 182 kts | 347° |
| 2026-05-05 17:50 | 40.30787 | -3.39641 | 5124 ft | 176 kts | 316° |
| 2026-05-05 17:50 | 40.31735 | -3.40656 | 5152 ft | 178 kts | 322° |
| 2026-05-05 17:51 | 40.32743 | -3.41589 | 5159 ft | 178 kts | 322° |
| 2026-05-05 17:51 | 40.33732 | -3.42551 | 5073 ft | 178 kts | 320° |
| 2026-05-05 17:51 | 40.34718 | -3.43545 | 4852 ft | 179 kts | 320° |
| 2026-05-05 17:51 | 40.35693 | -3.44538 | 4615 ft | 176 kts | 321° |
| 2026-05-05 17:52 | 40.36652 | -3.45517 | 4385 ft | 173 kts | 320° |
| 2026-05-05 17:52 | 40.37591 | -3.46476 | 4141 ft | 169 kts | 319° |
| 2026-05-05 17:52 | 40.38504 | -3.47411 | 3929 ft | 168 kts | 319° |
| 2026-05-05 17:52 | 40.39428 | -3.48354 | 3720 ft | 170 kts | 319° |
| 2026-05-05 17:53 | 40.40362 | -3.49306 | 3495 ft | 167 kts | 319° |
| 2026-05-05 17:53 | 40.41247 | -3.50211 | 3330 ft | 152 kts | 319° |
| 2026-05-05 17:53 | 40.42071 | -3.51055 | 3200 ft | 152 kts | 318° |
| 2026-05-05 17:53 | 40.42896 | -3.51916 | 2968 ft | 152 kts | 319° |
| 2026-05-05 17:54 | 40.43733 | -3.52785 | 2676 ft | 156 kts | 319° |
| 2026-05-05 17:54 | 40.44598 | -3.53647 | 2407 ft | 156 kts | 320° |
| 2026-05-05 17:54 | 40.45450 | -3.54495 | 2199 ft | 150 kts | 317° |
| 2026-05-05 17:54 | 40.46267 | -3.55337 | 2029 ft | 148 kts | 318° |
| 2026-05-05 17:55 | 40.47043 | -3.56137 | 1975 ft | 130 kts | 320° |
| 2026-05-05 17:55 | 40.47582 | -3.56681 | 1995 ft | 47 kts | 322° |
| 2026-05-05 17:55 | 40.47773 | -3.56965 | 1995 ft | 14 kts | 295° |
| 2026-05-05 17:55 | 40.47799 | -3.57039 | 1997 ft | 4 kts | 293° |
| 2026-05-05 17:56 | 40.47803 | -3.57055 | 1998 ft | 0 kts | 283° |
| 2026-05-05 17:56 | 40.47803 | -3.57057 | 1998 ft | 2 kts | 278° |
| 2026-05-05 17:56 | 40.47794 | -3.57093 | 1999 ft | 8 kts | 238° |
| 2026-05-05 17:57 | 40.47734 | -3.57100 | 1998 ft | 11 kts | 141° |
| 2026-05-05 17:57 | 40.47665 | -3.57030 | 1996 ft | 13 kts | 143° |
| 2026-05-05 17:57 | 40.47582 | -3.56947 | 1993 ft | 16 kts | 143° |
| 2026-05-05 17:57 | 40.47489 | -3.56855 | 1990 ft | 17 kts | 143° |
| 2026-05-05 17:58 | 40.47395 | -3.56758 | 1989 ft | 17 kts | 141° |
| 2026-05-05 17:58 | 40.47305 | -3.56666 | 1986 ft | 16 kts | 142° |
| 2026-05-05 17:58 | 40.47215 | -3.56573 | 1981 ft | 17 kts | 142° |
| 2026-05-05 17:58 | 40.47117 | -3.56490 | 1979 ft | 16 kts | 153° |
| 2026-05-05 17:59 | 40.47009 | -3.56453 | 1979 ft | 16 kts | 175° |
| 2026-05-05 17:59 | 40.46903 | -3.56464 | 1975 ft | 15 kts | 211° |
| 2026-05-05 17:59 | 40.46884 | -3.56592 | 1974 ft | 15 kts | 272° |
| 2026-05-05 17:59 | 40.46832 | -3.56683 | 1975 ft | 14 kts | 194° |
| 2026-05-05 18:00 | 40.46738 | -3.56698 | 1973 ft | 13 kts | 184° |
| 2026-05-05 18:00 | 40.46647 | -3.56705 | 1972 ft | 13 kts | 183° |
| 2026-05-05 18:00 | 40.46563 | -3.56711 | 1975 ft | 7 kts | 182° |
| 2026-05-05 18:00 | 40.46535 | -3.56754 | 1974 ft | 7 kts | 264° |
| 2026-05-05 18:01 | 40.46536 | -3.56801 | 1975 ft | 2 kts | 271° |
| 2026-05-05 18:01 | 40.46536 | -3.56805 | 1975 ft | 0 kts | 271° |